createdAt,value
2018-07-25T00:01:03.132Z,11.30
2018-07-25T00:03:31.236Z,11.37
2018-07-25T00:05:59.340Z,11.13
2018-07-25T00:08:27.413Z,10.20
2018-07-25T00:10:55.653Z,12.20
2018-07-25T00:13:25.240Z,10.37
2018-07-25T00:15:53.225Z,10.77
2018-07-25T00:18:21.301Z,10.90
2018-07-25T00:20:49.303Z,10.53
2018-07-25T00:23:17.344Z,12.70
2018-07-25T00:25:45.482Z,12.13
2018-07-25T00:28:13.608Z,10.40
2018-07-25T00:30:41.667Z,11.87
2018-07-25T00:33:09.769Z,10.17
2018-07-25T00:35:37.794Z,11.57
2018-07-25T00:38:05.895Z,10.73
2018-07-25T00:40:34.037Z,11.87
2018-07-25T00:43:02.027Z,10.93
2018-07-25T00:45:30.226Z,10.80
2018-07-25T00:47:58.370Z,11.23
2018-07-25T00:50:26.695Z,10.70
2018-07-25T00:52:54.821Z,10.23
2018-07-25T00:55:22.844Z,10.90
2018-07-25T00:57:50.894Z,11.00
2018-07-25T01:00:18.879Z,10.63
2018-07-25T01:02:47.683Z,11.17
2018-07-25T01:05:15.883Z,10.70
2018-07-25T01:07:43.974Z,10.70
2018-07-25T01:10:12.056Z,11.47
2018-07-25T01:12:40.146Z,10.47
2018-07-25T01:15:08.920Z,10.43
2018-07-25T01:17:37.250Z,11.83
2018-07-25T01:20:05.640Z,10.20
2018-07-25T01:22:33.773Z,11.57
2018-07-25T01:25:02.176Z,11.53
2018-07-25T01:27:30.184Z,11.27
2018-07-25T01:29:58.150Z,12.00
2018-07-25T01:32:26.281Z,11.07
2018-07-25T01:34:54.242Z,11.77
2018-07-25T01:37:22.259Z,11.33
2018-07-25T01:39:50.305Z,11.83
2018-07-25T01:42:18.549Z,12.43
2018-07-25T01:44:46.683Z,11.60
2018-07-25T01:47:14.822Z,12.23
2018-07-25T01:49:42.907Z,12.37
2018-07-25T01:52:10.947Z,11.97
2018-07-25T01:54:39.095Z,11.57
2018-07-25T01:57:07.731Z,11.87
2018-07-25T01:59:35.818Z,12.27
2018-07-25T02:02:04.028Z,11.43
2018-07-25T02:04:32.027Z,12.13
2018-07-25T02:07:00.137Z,11.10
2018-07-25T02:09:28.273Z,11.63
2018-07-25T02:11:56.233Z,11.07
2018-07-25T02:14:24.384Z,11.43
2018-07-25T02:16:52.465Z,11.50
2018-07-25T02:19:20.706Z,11.83
2018-07-25T02:21:48.745Z,11.17
2018-07-25T02:24:16.762Z,11.43
2018-07-25T02:26:44.893Z,11.90
2018-07-25T02:29:12.925Z,10.70
2018-07-25T02:31:41.034Z,11.30
2018-07-25T02:34:14.512Z,11.40
2018-07-25T02:36:42.554Z,11.80
2018-07-25T02:39:12.300Z,13.53
2018-07-25T02:41:40.457Z,10.67
2018-07-25T02:44:08.609Z,10.90
2018-07-25T02:46:36.695Z,11.37
2018-07-25T02:49:04.772Z,11.47
2018-07-25T02:51:33.324Z,12.30
2018-07-25T02:54:01.443Z,11.10
2018-07-25T02:56:29.566Z,11.30
2018-07-25T02:58:57.757Z,11.53
2018-07-25T03:01:26.073Z,10.77
2018-07-25T03:03:54.192Z,12.07
2018-07-25T03:06:22.274Z,11.80
2018-07-25T03:08:50.365Z,10.40
2018-07-25T03:11:18.313Z,11.37
2018-07-25T03:13:46.360Z,11.47
2018-07-25T03:16:14.510Z,11.23
2018-07-25T03:18:42.588Z,11.53
2018-07-25T03:21:10.718Z,11.40
2018-07-25T03:23:38.779Z,11.53
2018-07-25T03:26:06.882Z,11.10
2018-07-25T03:28:34.877Z,12.23
2018-07-25T03:31:02.880Z,11.37
2018-07-25T03:33:30.919Z,10.50
2018-07-25T03:35:59.601Z,10.80
2018-07-25T03:38:28.550Z,11.33
2018-07-25T03:40:56.996Z,12.30
2018-07-25T03:43:25.399Z,10.97
2018-07-25T03:45:53.447Z,11.73
2018-07-25T03:48:21.527Z,11.87
2018-07-25T03:50:49.596Z,11.40
2018-07-25T03:53:17.792Z,11.70
2018-07-25T03:55:45.804Z,11.33
2018-07-25T03:58:13.911Z,11.00
2018-07-25T04:00:41.961Z,11.03
2018-07-25T04:03:09.968Z,11.23
2018-07-25T04:05:38.099Z,10.93
2018-07-25T04:08:06.524Z,11.13
2018-07-25T04:10:34.920Z,11.33
2018-07-25T04:13:03.401Z,11.27
2018-07-25T04:15:31.746Z,11.33
2018-07-25T04:18:00.088Z,12.40
2018-07-25T04:20:28.528Z,11.23
2018-07-25T04:22:56.818Z,11.67
2018-07-25T04:25:25.164Z,11.70
2018-07-25T04:27:53.728Z,10.43
2018-07-25T04:30:22.514Z,10.83
2018-07-25T04:32:52.087Z,11.57
2018-07-25T04:35:20.682Z,11.10
2018-07-25T04:37:49.282Z,11.20
2018-07-25T04:40:17.689Z,12.27
2018-07-25T04:42:46.271Z,10.83
2018-07-25T04:45:14.623Z,11.50
2018-07-25T04:47:42.924Z,10.13
2018-07-25T04:50:11.415Z,10.77
2018-07-25T04:52:39.907Z,11.47
2018-07-25T04:55:08.357Z,10.37
2018-07-25T04:57:36.594Z,9.90
2018-07-25T05:00:05.387Z,11.07
2018-07-25T05:02:33.564Z,11.17
2018-07-25T05:05:01.931Z,11.60
2018-07-25T05:07:30.119Z,11.73
2018-07-25T05:09:58.215Z,11.50
2018-07-25T05:12:26.606Z,12.03
2018-07-25T05:14:54.865Z,12.23
2018-07-25T05:17:23.187Z,12.10
2018-07-25T05:19:51.420Z,11.30
2018-07-25T05:22:19.871Z,11.60
2018-07-25T05:24:48.011Z,11.70
2018-07-25T05:27:16.340Z,11.97
2018-07-25T05:29:44.471Z,11.87
2018-07-25T05:32:12.613Z,12.47
2018-07-25T05:34:40.819Z,11.20
2018-07-25T05:37:09.006Z,12.53
2018-07-25T05:39:37.255Z,12.00
2018-07-25T05:42:05.410Z,11.37
2018-07-25T05:44:33.658Z,12.00
2018-07-25T05:47:02.428Z,12.33
2018-07-25T05:49:30.933Z,11.57
2018-07-25T05:51:59.110Z,11.83
2018-07-25T05:54:27.356Z,12.97
2018-07-25T05:56:55.538Z,13.67
2018-07-25T05:59:23.731Z,12.80
2018-07-25T06:01:52.161Z,12.63
2018-07-25T06:04:20.268Z,11.00
2018-07-25T06:06:48.605Z,9.40
2018-07-25T06:09:16.863Z,11.93
2018-07-25T06:11:45.264Z,10.27
2018-07-25T06:14:13.540Z,9.93
2018-07-25T06:16:41.945Z,8.83
2018-07-25T06:19:10.102Z,8.77
2018-07-25T06:21:38.616Z,9.37
2018-07-25T06:24:07.023Z,9.50
2018-07-25T06:26:35.454Z,9.07
2018-07-25T06:29:03.874Z,9.70
2018-07-25T06:31:32.654Z,9.17
2018-07-25T06:34:01.357Z,7.77
2018-07-25T06:36:30.175Z,8.30
2018-07-25T06:38:58.652Z,8.00
2018-07-25T06:41:27.083Z,9.10
2018-07-25T06:43:55.536Z,8.23
2018-07-25T06:46:23.969Z,7.60
2018-07-25T06:48:52.424Z,8.30
2018-07-25T06:51:21.060Z,8.23
2018-07-25T06:53:49.497Z,9.50
2018-07-25T06:56:18.003Z,8.73
2018-07-25T06:58:46.186Z,8.77
2018-07-25T07:01:14.736Z,7.53
2018-07-25T07:03:43.148Z,8.27
2018-07-25T07:06:11.326Z,9.30
2018-07-25T07:08:39.566Z,9.53
2018-07-25T07:11:07.716Z,8.70
2018-07-25T07:13:35.972Z,8.87
2018-07-25T07:16:04.102Z,8.50
2018-07-25T07:18:32.169Z,8.27
2018-07-25T07:21:00.453Z,8.63
2018-07-25T07:23:28.604Z,8.20
2018-07-25T07:25:56.758Z,9.23
2018-07-25T07:28:24.913Z,9.50
2018-07-25T07:30:53.168Z,8.97
2018-07-25T07:33:21.521Z,9.20
2018-07-25T07:35:49.921Z,9.00
2018-07-25T07:38:18.111Z,8.60
2018-07-25T07:40:46.519Z,8.60
2018-07-25T07:43:14.880Z,8.20
2018-07-25T07:45:43.120Z,9.00
2018-07-25T07:48:11.272Z,9.03
2018-07-25T07:50:39.412Z,8.80
2018-07-25T07:53:07.809Z,9.40
2018-07-25T07:55:36.243Z,9.20
2018-07-25T07:58:04.675Z,9.00
2018-07-25T08:00:33.227Z,9.47
2018-07-25T08:03:01.659Z,9.37
2018-07-25T08:05:30.088Z,9.10
2018-07-25T08:07:58.338Z,8.33
2018-07-25T08:10:26.682Z,9.30
2018-07-25T08:12:55.004Z,8.97
2018-07-25T08:15:23.234Z,8.77
2018-07-25T08:17:51.566Z,9.23
2018-07-25T08:20:19.819Z,9.13
2018-07-25T08:22:47.968Z,8.47
2018-07-25T08:25:16.243Z,8.17
2018-07-25T08:27:44.413Z,8.10
2018-07-25T08:30:12.904Z,8.17
2018-07-25T08:32:41.144Z,8.00
2018-07-25T08:35:10.936Z,7.73
2018-07-25T08:37:39.502Z,6.80
2018-07-25T08:40:08.019Z,7.13
2018-07-25T08:42:37.817Z,6.60
2018-07-25T08:45:06.767Z,6.63
2018-07-25T08:47:35.291Z,6.27
2018-07-25T08:50:04.313Z,6.73
2018-07-25T08:52:32.751Z,6.70
2018-07-25T08:55:01.129Z,7.47
2018-07-25T08:57:29.296Z,6.60
2018-07-25T08:59:57.649Z,7.23
2018-07-25T09:02:26.264Z,6.37
2018-07-25T09:04:54.406Z,6.77
2018-07-25T09:07:22.680Z,5.83
2018-07-25T09:09:50.922Z,6.57
2018-07-25T09:12:19.123Z,7.07
2018-07-25T09:14:47.216Z,6.57
2018-07-25T09:17:16.080Z,6.47
2018-07-25T09:19:44.377Z,6.27
2018-07-25T09:22:12.595Z,6.03
2018-07-25T09:24:40.823Z,6.10
2018-07-25T09:27:09.349Z,6.17
2018-07-25T09:29:38.366Z,5.93
2018-07-25T09:32:06.897Z,5.23
2018-07-25T09:34:35.274Z,6.50
2018-07-25T09:37:04.309Z,5.50
2018-07-25T09:39:34.979Z,6.40
2018-07-25T09:42:05.106Z,8.80
2018-07-25T09:44:33.840Z,7.13
2018-07-25T09:47:03.937Z,7.97
2018-07-25T09:49:32.516Z,18.00
2018-07-25T09:52:00.905Z,6.57
2018-07-25T09:54:29.587Z,3.67
2018-07-25T09:56:58.117Z,2.80
2018-07-25T09:59:26.380Z,3.33
2018-07-25T10:01:54.761Z,4.00
2018-07-25T10:04:26.555Z,4.80
2018-07-25T10:06:54.967Z,3.57
2018-07-25T10:09:23.361Z,5.23
2018-07-25T10:11:55.122Z,3.97
2018-07-25T10:14:24.412Z,5.10
2018-07-25T10:16:52.636Z,5.80
2018-07-25T10:19:21.102Z,5.33
2018-07-25T10:21:49.454Z,6.17
2018-07-25T10:24:17.743Z,6.53
2018-07-25T10:26:46.080Z,5.43
2018-07-25T10:29:14.404Z,6.70
2018-07-25T10:31:43.258Z,5.13
2018-07-25T10:34:11.887Z,6.23
2018-07-25T10:36:40.374Z,5.23
2018-07-25T10:39:09.941Z,5.80
2018-07-25T10:41:38.557Z,7.17
2018-07-25T10:44:10.521Z,6.27
2018-07-25T10:46:40.603Z,7.30
2018-07-25T10:49:08.915Z,6.07
2018-07-25T10:51:37.335Z,7.47
2018-07-25T10:54:05.586Z,7.57
2018-07-25T10:56:33.936Z,8.03
2018-07-25T10:59:02.215Z,7.63
2018-07-25T11:01:31.291Z,8.93
2018-07-25T11:04:00.022Z,7.33
2018-07-25T11:06:28.371Z,8.37
2018-07-25T11:08:56.691Z,8.57
2018-07-25T11:11:28.432Z,9.70
2018-07-25T11:13:58.014Z,9.17
2018-07-25T11:16:26.430Z,7.93
2018-07-25T11:18:55.014Z,8.70
2018-07-25T11:21:23.598Z,8.63
2018-07-25T11:23:52.280Z,8.40
2018-07-25T11:26:21.263Z,9.23
2018-07-25T11:28:50.074Z,9.60
2018-07-25T11:31:19.135Z,8.73
2018-07-25T11:33:47.857Z,9.30
2018-07-25T11:36:16.487Z,9.87
2018-07-25T11:38:44.929Z,9.70
2018-07-25T11:41:13.439Z,9.37
2018-07-25T11:43:42.069Z,8.20
2018-07-25T11:46:10.933Z,9.70
2018-07-25T11:48:39.765Z,9.27
2018-07-25T11:51:08.449Z,10.90
2018-07-25T11:53:37.079Z,10.27
2018-07-25T11:56:05.856Z,10.00
2018-07-25T11:58:34.318Z,10.07
2018-07-25T12:01:02.802Z,9.53
2018-07-25T12:03:31.570Z,9.30
2018-07-25T12:06:00.141Z,10.87
2018-07-25T12:08:29.300Z,10.00
2018-07-25T12:10:57.844Z,10.00
2018-07-25T12:13:26.316Z,10.77
2018-07-25T12:15:54.591Z,9.63
2018-07-25T12:18:23.101Z,9.73
2018-07-25T12:20:51.374Z,10.33
2018-07-25T12:23:19.892Z,9.60
2018-07-25T12:25:48.116Z,9.50
2018-07-25T12:28:16.310Z,9.47
2018-07-25T12:30:44.650Z,9.23
2018-07-25T12:33:13.190Z,9.53
2018-07-25T12:35:41.551Z,8.80
2018-07-25T12:38:09.778Z,8.10
2018-07-25T12:40:38.066Z,7.73
2018-07-25T12:43:06.587Z,7.70
2018-07-25T12:45:35.110Z,8.10
2018-07-25T12:48:03.509Z,8.50
2018-07-25T12:50:32.068Z,7.33
2018-07-25T12:53:00.431Z,8.30
2018-07-25T12:55:28.768Z,7.57
2018-07-25T12:57:57.084Z,8.13
2018-07-25T13:00:25.981Z,7.87
2018-07-25T13:02:54.470Z,7.97
2018-07-25T13:05:22.863Z,7.87
2018-07-25T13:07:51.457Z,8.43
2018-07-25T13:10:20.032Z,7.57
2018-07-25T13:12:48.852Z,9.33
2018-07-25T13:15:17.537Z,8.20
2018-07-25T13:17:46.057Z,8.10
2018-07-25T13:20:14.922Z,7.73
2018-07-25T13:22:45.107Z,8.00
2018-07-25T13:25:14.127Z,7.10
2018-07-25T13:27:42.760Z,8.50
2018-07-25T13:33:16.178Z,8.33
2018-07-25T13:35:49.231Z,8.10
2018-07-25T13:38:17.578Z,7.90
2018-07-25T13:40:46.093Z,7.60
2018-07-25T13:43:14.588Z,7.17
2018-07-25T13:45:43.032Z,5.97
2018-07-25T13:48:11.275Z,5.93
2018-07-25T13:50:39.649Z,6.93
2018-07-25T13:53:08.453Z,7.73
2018-07-25T13:55:37.233Z,7.13
2018-07-25T13:58:06.104Z,7.43
2018-07-25T14:00:34.454Z,7.30
2018-07-25T14:03:02.936Z,6.90
2018-07-25T14:05:31.544Z,6.93
2018-07-25T14:08:00.395Z,6.40
2018-07-25T14:10:28.752Z,6.77
2018-07-25T14:12:58.476Z,7.00
2018-07-25T14:15:26.910Z,6.53
2018-07-25T14:17:55.451Z,6.67
2018-07-25T14:20:23.927Z,7.20
2018-07-25T14:22:52.389Z,6.80
2018-07-25T14:25:20.694Z,6.17
2018-07-25T14:27:49.110Z,6.60
2018-07-25T14:30:17.392Z,6.50
2018-07-25T14:32:45.636Z,7.00
2018-07-25T14:35:13.981Z,6.50
2018-07-25T14:37:42.348Z,6.60
2018-07-25T14:40:10.657Z,5.73
2018-07-25T14:42:39.107Z,5.53
2018-07-25T14:45:07.487Z,6.07
2018-07-25T14:47:35.913Z,4.57
2018-07-25T14:50:06.746Z,5.30
2018-07-25T14:52:35.257Z,4.87
2018-07-25T14:55:03.730Z,4.47
2018-07-25T14:57:32.120Z,4.23
2018-07-25T15:00:00.381Z,4.33
2018-07-25T15:02:28.612Z,3.63
2018-07-25T15:04:56.883Z,3.63
2018-07-25T15:07:25.092Z,3.30
2018-07-25T15:09:53.300Z,3.30
2018-07-25T15:12:27.049Z,3.47
2018-07-25T15:14:55.215Z,3.10
2018-07-25T15:17:23.416Z,3.40
2018-07-25T15:19:51.693Z,3.30
2018-07-25T15:22:19.993Z,3.70
2018-07-25T15:24:48.219Z,3.87
2018-07-25T15:27:16.490Z,3.43
2018-07-25T15:29:44.605Z,3.17
2018-07-25T15:32:12.760Z,3.70
2018-07-25T15:34:40.923Z,4.10
2018-07-25T15:37:09.170Z,4.00
2018-07-25T15:39:37.430Z,4.37
2018-07-25T15:42:05.938Z,3.73
2018-07-25T15:44:34.171Z,3.93
2018-07-25T15:47:02.541Z,3.53
2018-07-25T15:49:30.955Z,3.23
2018-07-25T15:51:58.828Z,3.40
2018-07-25T15:54:27.221Z,3.30
2018-07-25T15:56:55.407Z,3.23
2018-07-25T15:59:23.780Z,3.37
2018-07-25T16:01:52.209Z,3.53
2018-07-25T16:04:20.477Z,4.73
2018-07-25T16:06:50.420Z,4.50
2018-07-25T16:09:18.760Z,3.97
2018-07-25T16:11:47.429Z,4.03
2018-07-25T16:14:15.827Z,4.40
2018-07-25T16:16:44.568Z,3.87
2018-07-25T16:19:14.027Z,3.97
2018-07-25T16:21:42.772Z,4.47
2018-07-25T16:24:11.131Z,4.50
2018-07-25T16:26:39.755Z,3.77
2018-07-25T16:29:08.106Z,4.40
2018-07-25T16:31:36.299Z,4.20
2018-07-25T16:34:04.681Z,4.70
2018-07-25T16:36:33.039Z,5.20
2018-07-25T16:39:01.344Z,4.93
2018-07-25T16:41:29.668Z,4.47
2018-07-25T16:43:58.058Z,5.33
2018-07-25T16:46:26.311Z,6.00
2018-07-25T16:48:54.765Z,5.67
2018-07-25T16:51:22.925Z,5.57
2018-07-25T16:53:51.367Z,5.87
2018-07-25T16:56:19.873Z,5.13
2018-07-25T16:58:48.521Z,5.50
2018-07-25T17:01:16.912Z,6.20
2018-07-25T17:03:45.717Z,5.30
2018-07-25T17:06:14.551Z,5.70
2018-07-25T17:08:43.035Z,6.77
2018-07-25T17:11:11.428Z,6.40
2018-07-25T17:13:39.923Z,5.53
2018-07-25T17:16:08.623Z,6.50
2018-07-25T17:18:37.092Z,6.67
2018-07-25T17:21:06.156Z,6.60
2018-07-25T17:23:34.468Z,6.30
2018-07-25T17:26:02.802Z,7.60
2018-07-25T17:28:31.448Z,6.03
2018-07-25T17:30:59.937Z,7.13
2018-07-25T17:33:28.391Z,6.87
2018-07-25T17:35:57.177Z,6.53
2018-07-25T17:38:25.827Z,7.77
2018-07-25T17:40:54.168Z,6.30
2018-07-25T17:43:22.511Z,7.47
2018-07-25T17:45:50.897Z,7.53
2018-07-25T17:48:19.289Z,7.13
2018-07-25T17:50:47.992Z,7.30
2018-07-25T17:53:16.452Z,7.73
2018-07-25T17:55:44.954Z,7.67
2018-07-25T17:58:13.285Z,7.90
2018-07-25T18:00:41.636Z,6.83
2018-07-25T18:03:10.090Z,7.20
2018-07-25T18:05:38.712Z,7.87
2018-07-25T18:08:07.160Z,7.80
2018-07-25T18:10:36.881Z,7.07
2018-07-25T18:13:11.016Z,7.97
2018-07-25T18:15:39.672Z,7.73
2018-07-25T18:18:08.298Z,7.50
2018-07-25T18:20:36.885Z,7.80
2018-07-25T18:23:05.484Z,7.73
2018-07-25T18:25:33.925Z,7.90
2018-07-25T18:28:02.643Z,8.77
2018-07-25T18:30:31.099Z,7.70
2018-07-25T18:32:59.953Z,8.00
2018-07-25T18:35:28.596Z,7.83
2018-07-25T18:37:57.009Z,8.33
2018-07-25T18:40:25.581Z,7.37
2018-07-25T18:42:54.096Z,7.37
2018-07-25T18:45:22.552Z,7.57
2018-07-25T18:47:50.993Z,8.20
2018-07-25T18:50:19.466Z,7.80
2018-07-25T18:52:47.826Z,7.63
2018-07-25T18:55:16.363Z,7.63
2018-07-25T18:57:44.770Z,7.57
2018-07-25T19:00:13.200Z,7.13
2018-07-25T19:02:41.985Z,6.87
2018-07-25T19:05:10.407Z,7.97
2018-07-25T19:07:38.707Z,7.27
2018-07-25T19:10:07.182Z,6.90
2018-07-25T19:12:35.877Z,8.00
2018-07-25T19:15:09.979Z,7.07
2018-07-25T19:17:38.367Z,6.60
2018-07-25T19:20:06.739Z,7.03
2018-07-25T19:22:35.132Z,6.60
2018-07-25T19:25:03.498Z,6.97
2018-07-25T19:27:31.960Z,6.50
2018-07-25T19:30:00.498Z,6.30
2018-07-25T19:32:28.971Z,7.70
2018-07-25T19:34:57.391Z,7.17
2018-07-25T19:37:25.817Z,7.40
2018-07-25T19:39:54.192Z,7.57
2018-07-25T19:42:22.703Z,6.67
2018-07-25T19:44:51.393Z,7.40
2018-07-25T19:47:19.760Z,7.03
2018-07-25T19:49:48.195Z,6.90
2018-07-25T19:52:16.704Z,7.03
2018-07-25T19:54:45.129Z,6.17
2018-07-25T19:57:13.523Z,6.33
2018-07-25T19:59:42.166Z,6.90
2018-07-25T20:02:10.981Z,7.23
2018-07-25T20:04:39.261Z,6.70
2018-07-25T20:07:07.600Z,6.37
2018-07-25T20:09:36.038Z,7.27
2018-07-25T20:12:04.953Z,6.17
2018-07-25T20:14:38.855Z,6.50
2018-07-25T20:17:07.204Z,6.80
2018-07-25T20:19:35.575Z,6.57
2018-07-25T20:22:04.208Z,6.67
2018-07-25T20:24:32.765Z,6.33
2018-07-25T20:27:01.172Z,6.33
2018-07-25T20:29:29.884Z,7.27
2018-07-25T20:31:58.997Z,6.20
2018-07-25T20:34:27.382Z,6.57
2018-07-25T20:36:55.696Z,6.23
2018-07-25T20:39:24.089Z,7.17
2018-07-25T20:41:52.404Z,6.40
2018-07-25T20:44:20.802Z,6.70
2018-07-25T20:46:49.291Z,7.40
2018-07-25T20:49:17.668Z,6.73
2018-07-25T20:51:46.008Z,7.40
2018-07-25T20:54:14.328Z,6.50
2018-07-25T20:56:42.683Z,6.80
2018-07-25T20:59:11.109Z,7.23
2018-07-25T21:01:39.313Z,7.10
2018-07-25T21:04:07.728Z,7.57
2018-07-25T21:06:35.958Z,6.83
2018-07-25T21:09:06.674Z,8.00
2018-07-25T21:11:35.058Z,8.30
2018-07-25T21:14:03.444Z,7.60
2018-07-25T21:16:31.726Z,7.97
2018-07-25T21:19:00.089Z,7.30
2018-07-25T21:21:28.372Z,7.50
2018-07-25T21:23:57.870Z,7.03
2018-07-25T21:26:26.336Z,7.00
2018-07-25T21:28:54.716Z,7.60
2018-07-25T21:31:23.075Z,7.77
2018-07-25T21:33:51.277Z,7.73
2018-07-25T21:36:19.558Z,7.57
2018-07-25T21:38:47.845Z,8.47
2018-07-25T21:41:16.910Z,8.47
2018-07-25T21:43:45.273Z,8.90
2018-07-25T21:46:13.542Z,8.30
2018-07-25T21:48:41.845Z,8.43
2018-07-25T21:51:10.108Z,7.47
2018-07-25T21:53:38.866Z,7.77
2018-07-25T21:56:07.197Z,7.80
2018-07-25T21:58:35.472Z,8.07
2018-07-25T22:01:10.568Z,7.57
2018-07-25T22:03:39.004Z,8.93
2018-07-25T22:06:07.979Z,7.90
2018-07-25T22:08:37.409Z,7.50
2018-07-25T22:11:05.888Z,8.57
2018-07-25T22:13:34.251Z,8.87
2018-07-25T22:16:03.490Z,8.17
2018-07-25T22:18:32.807Z,8.77
2018-07-25T22:21:01.260Z,7.93
2018-07-25T22:23:30.421Z,8.03
2018-07-25T22:25:58.875Z,7.93
2018-07-25T22:28:27.168Z,8.07
2018-07-25T22:30:55.636Z,8.37
2018-07-25T22:33:24.095Z,7.60
2018-07-25T22:35:52.633Z,7.73
2018-07-25T22:38:21.871Z,7.60
2018-07-25T22:40:50.780Z,8.63
2018-07-25T22:43:19.327Z,8.33
2018-07-25T22:45:48.321Z,9.43
2018-07-25T22:48:16.717Z,9.90
2018-07-25T22:50:45.417Z,10.90
2018-07-25T22:53:13.878Z,8.70
2018-07-25T22:55:42.380Z,8.87
2018-07-25T22:58:10.798Z,8.33
2018-07-25T23:00:39.240Z,9.27
2018-07-25T23:03:07.637Z,8.53
2018-07-25T23:05:36.101Z,8.53
2018-07-25T23:08:04.736Z,9.67
2018-07-25T23:10:33.214Z,8.73
2018-07-25T23:13:01.681Z,8.13
2018-07-25T23:15:30.163Z,7.77
2018-07-25T23:17:58.579Z,8.73
2018-07-25T23:20:27.102Z,8.43
2018-07-25T23:22:58.747Z,7.40
2018-07-25T23:25:27.590Z,8.20
2018-07-25T23:27:57.149Z,7.67
2018-07-25T23:30:26.706Z,8.27
2018-07-25T23:32:55.159Z,8.40
2018-07-25T23:35:23.573Z,8.43
2018-07-25T23:37:52.294Z,7.07
2018-07-25T23:40:20.990Z,8.10
2018-07-25T23:42:49.985Z,9.27
2018-07-25T23:45:18.650Z,8.73
2018-07-25T23:47:47.014Z,8.30
2018-07-25T23:50:15.292Z,7.93
2018-07-25T23:52:43.665Z,7.77
2018-07-25T23:55:12.036Z,8.53
2018-07-25T23:57:40.380Z,8.00
